createdAt,value
2019-03-24T00:00:12.937Z,49.41
2019-03-24T00:02:41.306Z,49.34
2019-03-24T00:05:09.846Z,49.70
2019-03-24T00:07:38.201Z,49.73
2019-03-24T00:10:09.294Z,50.25
2019-03-24T00:12:37.663Z,50.54
2019-03-24T00:15:07.602Z,50.86
2019-03-24T00:17:36.064Z,51.50
2019-03-24T00:20:06.575Z,51.58
2019-03-24T00:22:34.944Z,51.35
2019-03-24T00:25:04.090Z,51.39
2019-03-24T00:27:32.457Z,51.98
2019-03-24T00:30:00.931Z,52.34
2019-03-24T00:32:29.356Z,52.69
2019-03-24T00:34:57.733Z,52.89
2019-03-24T00:37:26.194Z,53.27
2019-03-24T00:39:54.563Z,53.73
2019-03-24T00:42:22.919Z,54.04
2019-03-24T00:44:51.281Z,54.17
2019-03-24T00:47:19.650Z,54.19
2019-03-24T00:49:48.041Z,54.33
2019-03-24T00:52:16.434Z,53.94
2019-03-24T00:54:45.206Z,54.40
2019-03-24T00:57:13.565Z,54.49
2019-03-24T00:59:41.940Z,54.73
2019-03-24T01:02:10.359Z,54.54
2019-03-24T01:04:38.733Z,54.74
2019-03-24T01:07:07.189Z,55.42
2019-03-24T01:09:35.601Z,55.75
2019-03-24T01:12:04.038Z,55.73
2019-03-24T01:14:32.420Z,55.00
2019-03-24T01:17:00.775Z,55.04
2019-03-24T01:19:29.127Z,54.98
2019-03-24T01:21:57.574Z,55.52
2019-03-24T01:24:25.937Z,56.00
2019-03-24T01:26:54.313Z,55.73
2019-03-24T01:29:22.739Z,55.91
2019-03-24T01:31:51.098Z,55.72
2019-03-24T01:34:19.482Z,55.85
2019-03-24T01:36:47.857Z,55.80
2019-03-24T01:39:16.256Z,56.28
2019-03-24T01:41:44.617Z,56.74
2019-03-24T01:44:12.989Z,56.75
2019-03-24T01:46:41.331Z,56.87
2019-03-24T01:49:09.738Z,56.55
2019-03-24T01:51:38.137Z,56.89
2019-03-24T01:54:06.613Z,56.99
2019-03-24T01:56:35.005Z,57.30
2019-03-24T01:59:03.382Z,57.62
2019-03-24T02:01:31.758Z,57.33
2019-03-24T02:04:00.146Z,57.67
2019-03-24T02:06:28.532Z,57.55
2019-03-24T02:08:56.892Z,57.83
2019-03-24T02:11:25.294Z,57.64
2019-03-24T02:13:53.669Z,57.56
2019-03-24T02:16:22.022Z,58.33
2019-03-24T02:18:50.411Z,58.06
2019-03-24T02:21:18.805Z,57.69
2019-03-24T02:23:47.209Z,57.58
2019-03-24T02:26:15.594Z,57.41
2019-03-24T02:28:43.982Z,57.58
2019-03-24T02:31:12.354Z,57.88
2019-03-24T02:33:40.700Z,58.01
2019-03-24T02:36:09.104Z,58.41
2019-03-24T02:38:37.461Z,58.39
2019-03-24T02:41:07.645Z,58.03
2019-03-24T02:43:35.965Z,58.49
2019-03-24T02:46:04.394Z,58.53
2019-03-24T02:48:32.763Z,58.88
2019-03-24T02:51:01.162Z,58.73
2019-03-24T02:53:29.520Z,58.49
2019-03-24T02:55:57.899Z,58.51
2019-03-24T02:58:26.288Z,58.59
2019-03-24T03:00:54.661Z,58.57
2019-03-24T03:03:23.013Z,58.85
2019-03-24T03:05:51.382Z,58.74
2019-03-24T03:08:19.765Z,58.29
2019-03-24T03:10:48.144Z,58.17
2019-03-24T03:13:16.536Z,58.09
2019-03-24T03:15:44.907Z,58.22
2019-03-24T03:18:13.294Z,58.22
2019-03-24T03:20:41.699Z,58.46
2019-03-24T03:23:10.155Z,58.65
2019-03-24T03:25:38.544Z,59.04
2019-03-24T03:28:08.547Z,59.58
2019-03-24T03:30:36.948Z,59.64
2019-03-24T03:33:05.437Z,59.79
2019-03-24T03:35:33.804Z,59.83
2019-03-24T03:38:02.163Z,59.62
2019-03-24T03:40:30.563Z,60.00
2019-03-24T03:42:58.906Z,60.35
2019-03-24T03:45:28.720Z,60.63
2019-03-24T03:47:57.261Z,60.34
2019-03-24T03:50:25.617Z,60.33
2019-03-24T03:52:54.146Z,60.67
2019-03-24T03:55:22.640Z,60.63
2019-03-24T03:57:51.183Z,60.85
2019-03-24T04:00:22.703Z,61.47
2019-03-24T04:02:51.086Z,61.52
2019-03-24T04:05:19.448Z,61.79
2019-03-24T04:07:47.817Z,61.63
2019-03-24T04:10:16.176Z,61.76
2019-03-24T04:12:44.581Z,61.45
2019-03-24T04:15:12.994Z,61.66
2019-03-24T04:17:41.381Z,61.70
2019-03-24T04:20:09.913Z,61.64
2019-03-24T04:22:38.278Z,62.09
2019-03-24T04:25:07.503Z,62.28
2019-03-24T04:27:37.544Z,62.46
2019-03-24T04:30:06.834Z,62.37
2019-03-24T04:32:35.204Z,62.16
2019-03-24T04:35:04.864Z,61.86
2019-03-24T04:37:33.273Z,62.01
2019-03-24T04:40:01.593Z,61.99
2019-03-24T04:42:29.972Z,62.66
2019-03-24T04:44:58.351Z,63.37
2019-03-24T04:47:26.721Z,63.74
2019-03-24T04:49:55.096Z,63.64
2019-03-24T04:52:23.511Z,63.22
2019-03-24T04:54:53.486Z,62.86
2019-03-24T04:57:22.037Z,63.13
2019-03-24T04:59:50.472Z,63.76
2019-03-24T05:02:18.871Z,63.93
2019-03-24T05:04:47.245Z,64.11
2019-03-24T05:07:15.632Z,64.60
2019-03-24T05:09:44.166Z,64.61
2019-03-24T05:12:12.537Z,64.27
2019-03-24T05:14:40.919Z,64.17
2019-03-24T05:17:09.311Z,64.29
2019-03-24T05:19:37.665Z,64.01
2019-03-24T05:22:06.101Z,63.90
2019-03-24T05:24:34.476Z,64.03
2019-03-24T05:27:02.873Z,63.93
2019-03-24T05:29:31.392Z,63.97
2019-03-24T05:31:59.752Z,63.57
2019-03-24T05:34:28.126Z,63.66
2019-03-24T05:36:56.498Z,63.43
2019-03-24T05:39:24.894Z,63.42
2019-03-24T05:41:53.279Z,63.23
2019-03-24T05:44:21.651Z,62.96
2019-03-24T05:46:50.026Z,63.45
2019-03-24T05:49:18.414Z,62.91
2019-03-24T05:51:46.801Z,63.02
2019-03-24T05:54:15.184Z,63.09
2019-03-24T05:56:43.712Z,62.99
2019-03-24T05:59:12.116Z,62.37
2019-03-24T06:01:40.495Z,61.71
2019-03-24T06:04:08.963Z,61.63
2019-03-24T06:06:37.372Z,61.03
2019-03-24T06:09:06.484Z,60.94
2019-03-24T06:11:34.925Z,61.26
2019-03-24T06:14:03.341Z,61.17
2019-03-24T06:16:31.713Z,61.41
2019-03-24T06:19:00.076Z,61.50
2019-03-24T06:21:28.646Z,61.44
2019-03-24T06:23:57.008Z,61.32
2019-03-24T06:26:28.048Z,61.21
2019-03-24T06:28:56.419Z,60.95
2019-03-24T06:31:24.764Z,61.59
2019-03-24T06:33:53.161Z,61.29
2019-03-24T06:36:21.542Z,61.57
2019-03-24T06:38:49.926Z,62.29
2019-03-24T06:41:18.305Z,62.61
2019-03-24T06:43:46.701Z,63.04
2019-03-24T06:46:15.145Z,62.86
2019-03-24T06:48:43.528Z,62.78
2019-03-24T06:51:11.875Z,62.97
2019-03-24T06:53:40.285Z,63.43
2019-03-24T06:56:08.613Z,63.79
2019-03-24T06:58:36.974Z,63.77
2019-03-24T07:01:05.422Z,64.04
2019-03-24T07:03:33.840Z,64.18
2019-03-24T07:06:03.995Z,64.22
2019-03-24T07:08:33.045Z,64.58
2019-03-24T07:11:01.437Z,64.85
2019-03-24T07:13:29.967Z,64.84
2019-03-24T07:15:58.371Z,65.02
2019-03-24T07:18:26.744Z,64.90
2019-03-24T07:20:55.182Z,64.64
2019-03-24T07:23:23.581Z,64.51
2019-03-24T07:25:52.176Z,64.55
2019-03-24T07:28:20.522Z,64.70
2019-03-24T07:30:48.884Z,64.97
2019-03-24T07:33:17.292Z,65.40
2019-03-24T07:35:45.735Z,65.15
2019-03-24T07:38:14.086Z,65.21
2019-03-24T07:40:42.611Z,65.03
2019-03-24T07:43:10.985Z,65.16
2019-03-24T07:45:39.344Z,65.05
2019-03-24T07:48:07.706Z,65.25
2019-03-24T07:50:36.072Z,65.38
2019-03-24T07:53:04.521Z,65.32
2019-03-24T07:55:33.043Z,65.64
2019-03-24T07:58:01.396Z,66.10
2019-03-24T08:00:34.538Z,66.01
2019-03-24T08:03:02.996Z,65.83
2019-03-24T08:05:31.378Z,65.95
2019-03-24T08:07:59.765Z,65.70
2019-03-24T08:10:28.231Z,65.91
2019-03-24T08:12:56.763Z,65.95
2019-03-24T08:15:25.214Z,66.17
2019-03-24T08:17:53.626Z,66.33
2019-03-24T08:20:22.123Z,66.52
2019-03-24T08:22:50.541Z,66.62
2019-03-24T08:25:19.213Z,66.04
2019-03-24T08:27:50.090Z,65.10
2019-03-24T08:30:21.672Z,63.92
2019-03-24T08:32:50.021Z,62.13
2019-03-24T08:35:18.376Z,61.92
2019-03-24T08:37:46.759Z,59.74
2019-03-24T08:40:15.152Z,57.62
2019-03-24T08:42:43.551Z,55.32
2019-03-24T08:45:15.057Z,54.17
2019-03-24T08:47:43.431Z,51.30
2019-03-24T08:50:11.832Z,51.82
2019-03-24T08:52:40.189Z,50.25
2019-03-24T08:55:08.554Z,48.31
2019-03-24T08:57:36.941Z,45.66
2019-03-24T09:00:07.176Z,43.67
2019-03-24T09:02:35.541Z,42.96
2019-03-24T09:05:05.586Z,42.56
2019-03-24T09:07:33.938Z,40.66
2019-03-24T09:10:02.325Z,39.29
2019-03-24T09:12:31.319Z,38.31
2019-03-24T09:15:00.044Z,38.50
2019-03-24T09:17:28.432Z,38.01
2019-03-24T09:19:57.238Z,37.48
2019-03-24T09:22:25.663Z,36.94
2019-03-24T09:24:53.999Z,36.49
2019-03-24T09:27:22.317Z,35.96
2019-03-24T09:29:50.663Z,35.92
2019-03-24T09:32:19.048Z,35.72
2019-03-24T09:34:47.431Z,35.64
2019-03-24T09:37:15.828Z,35.35
2019-03-24T09:39:44.205Z,35.30
2019-03-24T09:42:12.568Z,34.43
2019-03-24T09:44:40.926Z,33.88
2019-03-24T09:47:09.300Z,32.64
2019-03-24T09:49:37.649Z,31.87
2019-03-24T09:52:06.015Z,32.07
2019-03-24T09:54:34.498Z,31.61
2019-03-24T09:57:02.864Z,31.83
2019-03-24T09:59:31.248Z,32.48
2019-03-24T10:01:59.627Z,32.82
2019-03-24T10:04:28.005Z,31.47
2019-03-24T10:06:56.398Z,30.83
2019-03-24T10:09:24.782Z,31.41
2019-03-24T10:11:53.115Z,30.66
2019-03-24T10:14:21.480Z,31.80
2019-03-24T10:16:49.848Z,32.54
2019-03-24T10:19:18.221Z,32.47
2019-03-24T10:21:46.611Z,33.44
2019-03-24T10:24:15.012Z,33.68
2019-03-24T10:26:43.377Z,34.18
2019-03-24T10:29:11.760Z,35.47
2019-03-24T10:31:42.501Z,35.66
2019-03-24T10:34:10.215Z,35.91
2019-03-24T10:36:38.606Z,36.28
2019-03-24T10:39:07.477Z,35.48
2019-03-24T10:41:35.946Z,36.09
2019-03-24T10:44:04.324Z,36.03
2019-03-24T10:46:32.754Z,32.49
2019-03-24T10:49:01.163Z,33.42
2019-03-24T10:51:29.509Z,34.07
2019-03-24T10:53:57.949Z,32.91
2019-03-24T10:56:26.358Z,32.49
2019-03-24T10:58:54.755Z,32.27
2019-03-24T11:01:23.175Z,32.07
2019-03-24T11:03:51.577Z,32.15
2019-03-24T11:06:20.020Z,31.04
2019-03-24T11:08:48.430Z,31.02
2019-03-24T11:11:16.870Z,31.24
2019-03-24T11:13:45.224Z,32.96
2019-03-24T11:16:13.581Z,30.93
2019-03-24T11:18:41.989Z,30.85
2019-03-24T11:21:10.336Z,30.93
2019-03-24T11:23:38.700Z,29.38
2019-03-24T11:26:07.080Z,29.59
2019-03-24T11:28:35.447Z,29.66
2019-03-24T11:31:03.813Z,29.98
2019-03-24T11:33:32.228Z,29.51
2019-03-24T11:36:00.610Z,29.33
2019-03-24T11:38:28.996Z,29.79
2019-03-24T11:40:57.352Z,29.89
2019-03-24T11:43:25.716Z,29.73
2019-03-24T11:45:54.079Z,29.58
2019-03-24T11:48:22.435Z,29.08
2019-03-24T11:50:50.834Z,29.60
2019-03-24T11:53:19.204Z,30.00
2019-03-24T11:55:47.582Z,29.52
2019-03-24T11:58:15.945Z,28.89
2019-03-24T12:00:44.388Z,29.13
2019-03-24T12:03:12.775Z,28.46
2019-03-24T12:05:41.258Z,29.19
2019-03-24T12:08:09.679Z,28.79
2019-03-24T12:10:38.103Z,29.26
2019-03-24T12:13:06.536Z,29.17
2019-03-24T12:15:34.891Z,28.91
2019-03-24T12:18:03.306Z,29.10
2019-03-24T12:20:31.822Z,29.19
2019-03-24T12:23:00.256Z,28.96
2019-03-24T12:25:28.651Z,29.93
2019-03-24T12:27:56.987Z,29.37
2019-03-24T12:30:25.382Z,30.62
2019-03-24T12:32:53.813Z,29.71
2019-03-24T12:35:22.174Z,29.93
2019-03-24T12:37:50.573Z,29.86
2019-03-24T12:40:18.970Z,29.83
2019-03-24T12:42:47.351Z,29.53
2019-03-24T12:45:16.003Z,29.27
2019-03-24T12:47:44.401Z,29.38
2019-03-24T12:50:13.116Z,29.08
2019-03-24T12:52:41.521Z,29.51
2019-03-24T12:55:10.243Z,29.50
2019-03-24T12:57:38.630Z,30.03
2019-03-24T13:00:11.519Z,30.21
2019-03-24T13:02:39.860Z,30.27
2019-03-24T13:05:09.373Z,30.81
2019-03-24T13:07:37.748Z,30.13
2019-03-24T13:10:06.666Z,29.99
2019-03-24T13:12:35.043Z,29.37
2019-03-24T13:15:05.122Z,29.68
2019-03-24T13:17:33.470Z,29.85
2019-03-24T13:20:01.832Z,29.63
2019-03-24T13:22:30.310Z,29.01
2019-03-24T13:24:58.672Z,28.66
2019-03-24T13:27:27.108Z,28.38
2019-03-24T13:29:55.496Z,28.60
2019-03-24T13:32:25.018Z,28.37
2019-03-24T13:34:53.523Z,28.99
2019-03-24T13:37:21.897Z,28.66
2019-03-24T13:39:50.285Z,28.74
2019-03-24T13:42:18.651Z,28.84
2019-03-24T13:44:47.022Z,29.26
2019-03-24T13:47:15.433Z,28.11
2019-03-24T13:49:43.810Z,28.38
2019-03-24T13:52:12.182Z,27.95
2019-03-24T13:54:40.832Z,28.09
2019-03-24T13:57:24.384Z,28.75
2019-03-24T13:59:52.796Z,29.09
2019-03-24T14:02:21.174Z,28.85
2019-03-24T14:04:49.558Z,29.37
2019-03-24T14:07:17.939Z,29.30
2019-03-24T14:09:46.328Z,29.56
2019-03-24T14:12:14.695Z,28.84
2019-03-24T14:14:43.303Z,28.94
2019-03-24T14:17:11.689Z,29.54
2019-03-24T14:19:40.159Z,28.65
2019-03-24T14:22:08.594Z,28.37
2019-03-24T14:24:36.987Z,28.72
2019-03-24T14:27:20.337Z,28.89
2019-03-24T14:29:48.705Z,29.42
2019-03-24T14:32:17.069Z,29.26
2019-03-24T14:34:45.460Z,29.93
2019-03-24T14:37:13.820Z,29.11
2019-03-24T14:39:42.187Z,30.16
2019-03-24T14:42:10.593Z,30.07
2019-03-24T14:44:39.007Z,30.67
2019-03-24T14:47:07.409Z,29.59
2019-03-24T14:49:35.807Z,29.44
2019-03-24T14:52:04.262Z,29.30
2019-03-24T14:54:32.612Z,29.20
2019-03-24T14:57:11.105Z,29.36
2019-03-24T14:59:39.416Z,29.55
2019-03-24T15:02:07.791Z,29.86
2019-03-24T15:04:36.290Z,29.99
2019-03-24T15:07:04.784Z,29.58
2019-03-24T15:09:33.278Z,29.83
2019-03-24T15:12:01.709Z,30.25
2019-03-24T15:14:30.077Z,30.28
2019-03-24T15:16:58.452Z,30.44
2019-03-24T15:19:26.829Z,30.19
2019-03-24T15:21:55.217Z,30.17
2019-03-24T15:24:23.572Z,29.75
2019-03-24T15:26:51.928Z,30.40
2019-03-24T15:29:20.297Z,29.92
2019-03-24T15:31:48.669Z,30.06
2019-03-24T15:34:17.044Z,30.05
2019-03-24T15:36:45.448Z,30.76
2019-03-24T15:39:13.792Z,31.34
2019-03-24T15:41:42.352Z,31.18
2019-03-24T15:44:10.726Z,31.05
2019-03-24T15:46:39.267Z,31.82
2019-03-24T15:49:07.631Z,32.57
2019-03-24T15:51:36.020Z,33.45
2019-03-24T15:54:04.401Z,33.37
2019-03-24T15:56:32.763Z,34.10
2019-03-24T15:59:01.175Z,34.28
2019-03-24T16:01:29.565Z,34.28
2019-03-24T16:03:57.904Z,34.14
2019-03-24T16:06:26.345Z,33.98
2019-03-24T16:08:54.726Z,34.15
2019-03-24T16:11:23.096Z,34.36
2019-03-24T16:13:51.497Z,34.06
2019-03-24T16:16:19.867Z,34.51
2019-03-24T16:18:48.248Z,34.41
2019-03-24T16:21:27.128Z,34.62
2019-03-24T16:23:46.788Z,34.63
2019-03-24T16:26:15.171Z,34.88
2019-03-24T16:28:43.541Z,35.36
2019-03-24T16:31:11.899Z,35.60
2019-03-24T16:33:40.278Z,35.72
2019-03-24T16:36:08.651Z,36.45
2019-03-24T16:38:37.077Z,36.71
2019-03-24T16:41:05.454Z,36.10
2019-03-24T16:43:33.865Z,36.87
2019-03-24T16:46:02.295Z,37.18
2019-03-24T16:48:36.704Z,37.41
2019-03-24T16:51:00.792Z,37.90
2019-03-24T16:53:29.157Z,38.18
2019-03-24T16:55:57.540Z,38.36
2019-03-24T16:58:25.918Z,39.52
2019-03-24T17:00:54.364Z,39.03
2019-03-24T17:03:22.750Z,40.23
2019-03-24T17:05:51.116Z,40.96
2019-03-24T17:08:19.477Z,39.63
2019-03-24T17:10:48.954Z,38.42
2019-03-24T17:13:17.300Z,36.90
2019-03-24T17:15:45.764Z,37.43
2019-03-24T17:18:14.192Z,37.51
2019-03-24T17:20:42.565Z,37.88
2019-03-24T17:23:10.999Z,37.58
2019-03-24T17:25:39.343Z,37.25
2019-03-24T17:28:07.736Z,37.55
2019-03-24T17:30:36.082Z,38.01
2019-03-24T17:33:04.481Z,38.07
2019-03-24T17:35:32.897Z,38.42
2019-03-24T17:38:01.540Z,37.94
2019-03-24T17:40:29.882Z,38.53
2019-03-24T17:42:58.435Z,39.48
2019-03-24T17:45:26.826Z,39.85
2019-03-24T17:47:55.201Z,40.26
2019-03-24T17:50:23.575Z,42.05
2019-03-24T17:52:51.960Z,42.29
2019-03-24T17:55:27.508Z,42.22
2019-03-24T17:57:50.433Z,42.79
2019-03-24T18:00:24.566Z,42.96
2019-03-24T18:02:52.926Z,43.43
2019-03-24T18:05:21.472Z,44.47
2019-03-24T18:07:49.867Z,45.26
2019-03-24T18:10:18.214Z,45.97
2019-03-24T18:12:46.586Z,46.70
2019-03-24T18:15:15.111Z,45.81
2019-03-24T18:17:43.530Z,45.65
2019-03-24T18:20:13.902Z,45.87
2019-03-24T18:22:42.268Z,46.02
2019-03-24T18:25:10.817Z,46.46
2019-03-24T18:27:39.291Z,46.34
2019-03-24T18:30:10.375Z,46.19
2019-03-24T18:32:38.844Z,46.27
2019-03-24T18:35:10.605Z,46.42
2019-03-24T18:37:39.022Z,46.69
2019-03-24T18:40:10.631Z,47.20
2019-03-24T18:42:39.094Z,47.38
2019-03-24T18:45:09.756Z,45.94
2019-03-24T18:47:39.407Z,46.10
2019-03-24T18:50:09.637Z,46.95
2019-03-24T18:52:38.067Z,47.05
2019-03-24T18:55:07.667Z,47.07
2019-03-24T18:57:36.128Z,47.16
2019-03-24T19:00:14.425Z,47.49
2019-03-24T19:02:42.817Z,47.61
2019-03-24T19:05:11.243Z,47.93
2019-03-24T19:07:39.610Z,47.69
2019-03-24T19:10:09.382Z,48.09
2019-03-24T19:12:37.993Z,48.31
2019-03-24T19:15:08.466Z,48.32
2019-03-24T19:17:37.021Z,47.95
2019-03-24T19:20:06.441Z,47.45
2019-03-24T19:22:34.791Z,47.77
2019-03-24T19:25:07.249Z,48.23
2019-03-24T19:27:35.575Z,48.32
2019-03-24T19:30:06.715Z,48.39
2019-03-24T19:32:35.105Z,48.43
2019-03-24T19:35:04.733Z,49.18
2019-03-24T19:37:33.381Z,49.07
2019-03-24T19:40:01.864Z,48.75
2019-03-24T19:42:30.312Z,48.39
2019-03-24T19:44:58.699Z,48.43
2019-03-24T19:47:27.090Z,48.77
2019-03-24T19:49:55.497Z,48.88
2019-03-24T19:52:23.898Z,49.50
2019-03-24T19:54:52.262Z,49.63
2019-03-24T19:57:20.641Z,49.80
2019-03-24T19:59:49.093Z,49.98
2019-03-24T20:02:17.525Z,50.64
2019-03-24T20:04:46.010Z,50.95
2019-03-24T20:07:14.389Z,51.10
2019-03-24T20:09:42.704Z,51.25
2019-03-24T20:12:11.115Z,51.71
2019-03-24T20:14:39.577Z,51.47
2019-03-24T20:17:08.274Z,52.04
2019-03-24T20:19:36.693Z,52.16
2019-03-24T20:22:05.082Z,52.10
2019-03-24T20:24:33.454Z,51.68
2019-03-24T20:27:01.884Z,51.35
2019-03-24T20:29:30.315Z,51.36
2019-03-24T20:31:58.729Z,51.82
2019-03-24T20:34:27.149Z,51.92
2019-03-24T20:36:55.545Z,52.31
2019-03-24T20:39:23.899Z,52.03
2019-03-24T20:41:52.535Z,51.73
2019-03-24T20:44:20.893Z,51.67
2019-03-24T20:46:49.364Z,51.94
2019-03-24T20:49:17.818Z,52.16
2019-03-24T20:51:46.361Z,52.75
2019-03-24T20:54:14.688Z,52.66
2019-03-24T20:56:43.258Z,52.16
2019-03-24T20:59:11.690Z,52.12
2019-03-24T21:01:40.140Z,52.34
2019-03-24T21:04:08.596Z,52.34
2019-03-24T21:06:36.983Z,52.27
2019-03-24T21:09:07.804Z,52.50
2019-03-24T21:11:36.174Z,52.64
2019-03-24T21:14:05.225Z,52.58
2019-03-24T21:16:33.620Z,52.30
2019-03-24T21:19:02.015Z,52.43
2019-03-24T21:21:30.399Z,52.51
2019-03-24T21:23:58.774Z,52.77
2019-03-24T21:26:27.138Z,53.29
2019-03-24T21:28:55.474Z,53.00
2019-03-24T21:31:23.860Z,53.42
2019-03-24T21:33:52.232Z,53.58
2019-03-24T21:36:20.799Z,53.41
2019-03-24T21:38:49.180Z,53.77
2019-03-24T21:41:17.549Z,54.63
2019-03-24T21:43:45.930Z,54.82
2019-03-24T21:46:14.309Z,54.89
2019-03-24T21:48:42.823Z,54.87
2019-03-24T21:51:11.199Z,55.10
2019-03-24T21:53:40.925Z,55.19
2019-03-24T21:56:09.787Z,54.61
2019-03-24T21:58:38.131Z,54.78
2019-03-24T22:01:06.516Z,54.82
2019-03-24T22:03:34.928Z,54.66
2019-03-24T22:06:03.297Z,54.30
2019-03-24T22:08:31.950Z,54.44
2019-03-24T22:11:00.313Z,54.78
2019-03-24T22:13:28.698Z,54.75
2019-03-24T22:15:57.108Z,54.47
2019-03-24T22:18:25.454Z,54.66
2019-03-24T22:20:53.822Z,54.75
2019-03-24T22:23:22.180Z,54.80
2019-03-24T22:25:50.569Z,55.44
2019-03-24T22:28:18.948Z,55.85
2019-03-24T22:30:47.324Z,56.06
2019-03-24T22:33:15.709Z,56.90
2019-03-24T22:35:44.082Z,57.33
2019-03-24T22:38:12.434Z,57.26
2019-03-24T22:40:40.795Z,57.25
2019-03-24T22:43:09.181Z,57.71
2019-03-24T22:45:37.629Z,57.37
2019-03-24T22:48:06.001Z,57.67
2019-03-24T22:50:34.399Z,57.53
2019-03-24T22:53:02.757Z,57.19
2019-03-24T22:55:31.119Z,56.85
2019-03-24T22:57:59.526Z,56.64
2019-03-24T23:00:35.149Z,56.92
2019-03-24T23:03:03.511Z,57.19
2019-03-24T23:05:31.889Z,57.34
2019-03-24T23:08:00.327Z,57.69
2019-03-24T23:10:28.723Z,57.75
2019-03-24T23:12:57.153Z,57.94
2019-03-24T23:15:25.532Z,58.30
2019-03-24T23:17:53.899Z,58.65
2019-03-24T23:20:22.270Z,58.80
2019-03-24T23:22:50.648Z,59.18
2019-03-24T23:25:19.028Z,59.06
2019-03-24T23:27:47.405Z,58.85
2019-03-24T23:30:16.414Z,58.76
2019-03-24T23:32:44.786Z,59.00
2019-03-24T23:35:13.178Z,59.25
2019-03-24T23:37:41.537Z,59.50
2019-03-24T23:40:10.133Z,59.95
2019-03-24T23:42:38.515Z,60.32
2019-03-24T23:45:08.296Z,60.37
2019-03-24T23:47:36.748Z,60.35
2019-03-24T23:50:07.091Z,60.03
2019-03-24T23:52:35.438Z,59.93
2019-03-24T23:55:04.401Z,59.69
2019-03-24T23:57:32.781Z,59.28
